Time;durP1;ratioP1;P1;durP2;ratioP2;P2;SDS_P1;SDS_P2;PMS_P1;PMS_P2;Temp;Humidity;BMP_temperature;BMP_pressure;BME280_temperature;BME280_humidity;BME280_pressure;Samples;Min_cycle;Max_cycle;Signal;HPM_P1;HPM_P2
2022/11/22 00:00:53;;;;;;;36.33;22.57;;;;;;;;;;738612;190;901992;-63
2022/11/22 00:03:19;;;;;;;34.47;20.90;;;;;;;;;;733215;190;916065;-63
2022/11/22 00:05:45;;;;;;;29.15;18.35;;;;;;;;;;737669;190;628812;-63
2022/11/22 00:08:11;;;;;;;32.17;18.60;;;;;;;;;;742181;190;617348;-63
2022/11/22 00:10:37;;;;;;;28.53;17.47;;;;;;;;;;737032;190;918518;-60
2022/11/22 00:13:03;;;;;;;27.43;19.63;;;;;;;;;;738056;190;635720;-60
2022/11/22 00:15:29;;;;;;;38.20;22.10;;;;;;;;;;735676;190;624843;-63
2022/11/22 00:17:55;;;;;;;31.23;19.53;;;;;;;;;;735438;190;627074;-59
2022/11/22 00:20:21;;;;;;;37.17;22.33;;;;;;;;;;728749;190;916604;-62
2022/11/22 00:22:46;;;;;;;29.58;21.40;;;;;;;;;;729544;190;914667;-62
2022/11/22 00:25:12;;;;;;;34.63;21.10;;;;;;;;;;738205;190;922889;-62
2022/11/22 00:27:38;;;;;;;34.50;19.93;;;;;;;;;;732519;188;919424;-59
2022/11/22 00:30:04;;;;;;;30.37;19.17;;;;;;;;;;732867;190;919404;-59
2022/11/22 00:32:30;;;;;;;38.30;23.03;;;;;;;;;;737029;190;919354;-60
2022/11/22 00:34:56;;;;;;;32.53;21.57;;;;;;;;;;736033;190;931414;-60
2022/11/22 00:37:22;;;;;;;31.20;19.77;;;;;;;;;;738150;190;818665;-59
2022/11/22 00:39:48;;;;;;;26.47;17.07;;;;;;;;;;734821;191;918456;-59
2022/11/22 00:42:14;;;;;;;33.17;19.20;;;;;;;;;;727997;190;919530;-63
2022/11/22 00:44:40;;;;;;;29.03;18.07;;;;;;;;;;726717;190;919144;-62
2022/11/22 00:47:05;;;;;;;28.17;17.07;;;;;;;;;;732641;190;919113;-63
2022/11/22 00:49:31;;;;;;;30.08;19.20;;;;;;;;;;737025;191;824537;-63
2022/11/22 00:51:57;;;;;;;29.50;17.17;;;;;;;;;;728400;190;816392;-64
2022/11/22 00:54:23;;;;;;;35.43;18.67;;;;;;;;;;732652;191;816585;-62
2022/11/22 00:56:49;;;;;;;19.98;13.18;;;;;;;;;;739528;190;817248;-60
2022/11/22 00:59:15;;;;;;;19.30;12.97;;;;;;;;;;733669;190;919067;-63
2022/11/22 01:01:40;;;;;;;21.30;14.90;;;;;;;;;;731702;190;918796;-64
2022/11/22 01:04:06;;;;;;;20.40;14.43;;;;;;;;;;734221;191;918882;-60
2022/11/22 01:06:32;;;;;;;21.27;14.80;;;;;;;;;;731471;190;918651;-59
2022/11/22 01:08:58;;;;;;;21.30;14.70;;;;;;;;;;729682;191;915360;-59
2022/11/22 01:11:24;;;;;;;25.40;14.53;;;;;;;;;;729839;191;918184;-60
2022/11/22 01:13:50;;;;;;;16.87;11.80;;;;;;;;;;746699;186;919024;-60
2022/11/22 01:16:15;;;;;;;18.50;10.53;;;;;;;;;;733757;188;918953;-59
2022/11/22 01:18:41;;;;;;;17.80;11.60;;;;;;;;;;732017;190;907806;-62
2022/11/22 01:21:07;;;;;;;19.37;11.55;;;;;;;;;;737264;190;920198;-62
2022/11/22 01:23:33;;;;;;;24.70;14.50;;;;;;;;;;729575;190;920166;-62
2022/11/22 01:25:59;;;;;;;17.90;12.17;;;;;;;;;;732260;190;919155;-63
2022/11/22 01:28:25;;;;;;;16.50;11.87;;;;;;;;;;738023;190;919893;-62
2022/11/22 01:30:51;;;;;;;19.93;12.33;;;;;;;;;;734463;190;922411;-62
2022/11/22 01:33:16;;;;;;;19.47;11.60;;;;;;;;;;734541;190;924049;-60
2022/11/22 01:35:42;;;;;;;21.10;12.83;;;;;;;;;;738550;190;918777;-58
2022/11/22 01:38:08;;;;;;;14.33;8.67;;;;;;;;;;731699;190;917961;-63
2022/11/22 01:40:34;;;;;;;22.57;13.07;;;;;;;;;;730577;190;921904;-62
2022/11/22 01:43:00;;;;;;;27.40;14.67;;;;;;;;;;736678;190;918739;-63
2022/11/22 01:45:38;;;;;;;25.62;12.98;;;;;;;;;;741038;190;759740;-59
2022/11/22 01:48:20;;;;;;;15.20;11.17;;;;;;;;;;735945;190;919407;-61
2022/11/22 01:50:46;;;;;;;19.73;11.47;;;;;;;;;;734781;190;919091;-64
2022/11/22 01:53:12;;;;;;;24.50;12.97;;;;;;;;;;732353;190;919702;-63
2022/11/22 01:55:38;;;;;;;22.93;12.00;;;;;;;;;;735634;190;918913;-59
2022/11/22 01:58:03;;;;;;;21.90;12.20;;;;;;;;;;736767;190;919758;-63
2022/11/22 02:00:29;;;;;;;21.77;12.48;;;;;;;;;;729040;190;908657;-63
2022/11/22 02:02:55;;;;;;;19.07;11.23;;;;;;;;;;731161;190;904770;-61
2022/11/22 02:05:21;;;;;;;18.97;11.60;;;;;;;;;;737005;191;931822;-60
2022/11/22 02:07:47;;;;;;;20.10;11.87;;;;;;;;;;732179;190;916334;-63
2022/11/22 02:10:13;;;;;;;18.90;11.80;;;;;;;;;;736471;190;916446;-64
2022/11/22 02:12:39;;;;;;;15.87;11.57;;;;;;;;;;739300;190;916346;-60
2022/11/22 02:15:06;;;;;;;15.93;10.20;;;;;;;;;;730024;190;920908;-64
2022/11/22 02:17:31;;;;;;;21.20;11.33;;;;;;;;;;732132;190;918854;-63
2022/11/22 02:19:56;;;;;;;17.37;10.20;;;;;;;;;;730556;190;918606;-64
2022/11/22 02:22:28;;;;;;;14.40;8.63;;;;;;;;;;737656;190;816915;-63
2022/11/22 02:24:56;;;;;;;17.30;10.20;;;;;;;;;;728697;189;919303;-64
2022/11/22 02:27:22;;;;;;;18.33;10.70;;;;;;;;;;734479;190;818818;-63
2022/11/22 02:29:49;;;;;;;19.43;10.90;;;;;;;;;;736569;190;918821;-60
2022/11/22 02:32:14;;;;;;;17.57;11.40;;;;;;;;;;730769;193;917303;-63
2022/11/22 02:34:41;;;;;;;13.70;11.43;;;;;;;;;;734710;190;918894;-63
2022/11/22 02:37:07;;;;;;;19.57;10.90;;;;;;;;;;734593;191;918963;-63
2022/11/22 02:39:33;;;;;;;15.50;9.30;;;;;;;;;;739798;190;917042;-63
2022/11/22 02:41:59;;;;;;;14.87;10.47;;;;;;;;;;729192;191;921687;-60
2022/11/22 02:44:24;;;;;;;18.47;12.67;;;;;;;;;;732040;190;919300;-60
2022/11/22 02:46:51;;;;;;;23.07;13.83;;;;;;;;;;738399;190;918453;-63
2022/11/22 02:49:19;;;;;;;20.77;12.77;;;;;;;;;;735512;189;918858;-63
2022/11/22 02:51:45;;;;;;;18.53;12.50;;;;;;;;;;735475;188;918784;-63
2022/11/22 02:54:11;;;;;;;24.20;12.33;;;;;;;;;;733727;190;912140;-60
2022/11/22 02:56:36;;;;;;;17.30;11.50;;;;;;;;;;741194;187;918828;-61
2022/11/22 02:59:02;;;;;;;24.37;12.40;;;;;;;;;;736960;190;919021;-60
2022/11/22 03:01:28;;;;;;;22.93;12.17;;;;;;;;;;731573;190;905009;-61
2022/11/22 03:03:54;;;;;;;18.73;11.30;;;;;;;;;;735189;189;917772;-61
2022/11/22 03:06:20;;;;;;;17.40;11.67;;;;;;;;;;736533;190;918099;-63
2022/11/22 03:08:47;;;;;;;20.42;12.75;;;;;;;;;;733104;191;918461;-61
2022/11/22 03:11:12;;;;;;;15.73;10.73;;;;;;;;;;734340;190;918574;-63
2022/11/22 03:13:37;;;;;;;17.03;10.33;;;;;;;;;;734624;190;920701;-60
2022/11/22 03:16:04;;;;;;;13.00;9.23;;;;;;;;;;729628;191;916334;-60
2022/11/22 03:18:30;;;;;;;19.08;10.90;;;;;;;;;;737562;190;919201;-63
2022/11/22 03:20:55;;;;;;;13.47;6.97;;;;;;;;;;742571;187;921916;-60
2022/11/22 03:23:21;;;;;;;20.67;10.40;;;;;;;;;;731587;190;822221;-60
2022/11/22 03:25:47;;;;;;;18.00;9.47;;;;;;;;;;732616;190;918491;-61
2022/11/22 03:28:13;;;;;;;16.53;9.87;;;;;;;;;;738571;190;919325;-60
2022/11/22 03:30:39;;;;;;;18.00;8.40;;;;;;;;;;739008;190;818658;-62
2022/11/22 03:33:05;;;;;;;13.97;8.20;;;;;;;;;;733358;190;918666;-60
2022/11/22 03:35:31;;;;;;;17.50;10.27;;;;;;;;;;726061;194;918533;-63
2022/11/22 03:37:56;;;;;;;16.13;10.60;;;;;;;;;;729562;190;816276;-63
2022/11/22 03:40:22;;;;;;;16.07;9.47;;;;;;;;;;732412;191;916828;-62
2022/11/22 03:42:48;;;;;;;18.98;10.00;;;;;;;;;;737254;190;919379;-60
2022/11/22 03:45:14;;;;;;;21.53;11.03;;;;;;;;;;730625;190;924272;-60
2022/11/22 03:47:40;;;;;;;18.10;10.43;;;;;;;;;;733299;190;918461;-63
2022/11/22 03:50:06;;;;;;;14.40;9.23;;;;;;;;;;734209;190;917154;-63
2022/11/22 03:52:31;;;;;;;15.93;9.70;;;;;;;;;;740146;190;919252;-60
2022/11/22 03:54:57;;;;;;;17.10;10.48;;;;;;;;;;732559;190;910892;-60
2022/11/22 03:57:23;;;;;;;16.73;10.33;;;;;;;;;;732554;190;816675;-64
2022/11/22 03:59:49;;;;;;;17.60;9.53;;;;;;;;;;741734;190;909023;-64
2022/11/22 04:02:15;;;;;;;17.23;10.20;;;;;;;;;;734538;190;801405;-60
2022/11/22 04:04:41;;;;;;;17.93;11.50;;;;;;;;;;735531;188;705462;-64
2022/11/22 04:07:07;;;;;;;13.53;8.40;;;;;;;;;;743624;189;631614;-62
2022/11/22 04:09:32;;;;;;;15.67;5.97;;;;;;;;;;734050;190;915362;-61
2022/11/22 04:11:58;;;;;;;14.40;8.87;;;;;;;;;;733112;190;919427;-64
2022/11/22 04:16:56;;;;;;;13.27;7.87;;;;;;;;;;736161;189;817225;-60
2022/11/22 04:19:21;;;;;;;31.70;25.90;;;;;;;;;;735669;190;919298;-61
2022/11/22 04:21:47;;;;;;;20.63;14.90;;;;;;;;;;732093;189;1010797;-61
2022/11/22 04:26:45;;;;;;;16.80;12.33;;;;;;;;;;738654;187;941912;-61
2022/11/22 04:29:11;;;;;;;21.37;10.68;;;;;;;;;;733134;189;921602;-61
2022/11/22 04:34:08;;;;;;;16.50;8.30;;;;;;;;;;737158;190;983298;-61
2022/11/22 04:36:34;;;;;;;15.07;9.60;;;;;;;;;;732717;190;918996;-61
2022/11/22 04:39:00;;;;;;;15.18;9.30;;;;;;;;;;732172;190;1023626;-61
2022/11/22 04:41:26;;;;;;;18.08;9.30;;;;;;;;;;734137;190;928939;-61
2022/11/22 04:46:24;;;;;;;30.33;23.10;;;;;;;;;;735930;187;922090;-60
2022/11/22 04:48:50;;;;;;;87.40;58.97;;;;;;;;;;735308;190;911578;-60
2022/11/22 04:53:47;;;;;;;32.57;22.47;;;;;;;;;;739365;188;919552;-60
2022/11/22 04:56:13;;;;;;;19.87;12.40;;;;;;;;;;733113;188;918700;-61
2022/11/22 04:58:39;;;;;;;81.37;40.37;;;;;;;;;;728890;190;920888;-63
2022/11/22 05:01:05;;;;;;;694.47;331.57;;;;;;;;;;738184;190;916616;-62
2022/11/22 05:03:31;;;;;;;112.97;48.37;;;;;;;;;;730812;190;914142;-61
2022/11/22 05:05:56;;;;;;;25.37;14.73;;;;;;;;;;730491;191;1019522;-64
2022/11/22 05:08:22;;;;;;;285.73;129.97;;;;;;;;;;738590;190;912187;-61
2022/11/22 05:13:20;;;;;;;31.63;17.80;;;;;;;;;;734261;190;919112;-64
2022/11/22 05:15:46;;;;;;;37.80;22.50;;;;;;;;;;737656;189;916321;-63
2022/11/22 05:18:11;;;;;;;32.87;19.90;;;;;;;;;;744284;190;817309;-61
2022/11/22 05:20:37;;;;;;;14.57;9.77;;;;;;;;;;734927;190;918654;-60
2022/11/22 05:25:35;;;;;;;14.17;9.87;;;;;;;;;;740986;190;915722;-60
2022/11/22 05:28:01;;;;;;;18.17;11.87;;;;;;;;;;737248;190;918702;-61
2022/11/22 05:30:27;;;;;;;124.90;53.47;;;;;;;;;;733885;190;927380;-62
2022/11/22 05:32:53;;;;;;;20.40;12.77;;;;;;;;;;734712;190;1022061;-63
2022/11/22 05:35:19;;;;;;;31.33;16.27;;;;;;;;;;742379;190;915805;-62
2022/11/22 05:37:45;;;;;;;26.03;15.63;;;;;;;;;;732320;190;919175;-60
2022/11/22 05:40:11;;;;;;;21.62;13.27;;;;;;;;;;733487;190;916732;-58
2022/11/22 05:42:37;;;;;;;15.02;9.32;;;;;;;;;;735972;191;917785;-60
2022/11/22 05:45:03;;;;;;;18.67;10.38;;;;;;;;;;733557;190;919110;-63
2022/11/22 05:47:31;;;;;;;15.73;10.13;;;;;;;;;;731975;188;922217;-63
2022/11/22 05:49:57;;;;;;;13.13;7.93;;;;;;;;;;734376;190;915620;-62
2022/11/22 05:52:23;;;;;;;12.00;7.57;;;;;;;;;;735159;187;920062;-60
2022/11/22 05:54:49;;;;;;;10.80;6.50;;;;;;;;;;734464;190;918840;-63
2022/11/22 05:57:15;;;;;;;14.60;7.53;;;;;;;;;;733426;188;848475;-62
2022/11/22 05:59:42;;;;;;;9.27;6.40;;;;;;;;;;735650;190;916670;-63
2022/11/22 06:02:07;;;;;;;11.43;7.93;;;;;;;;;;731265;190;914813;-64
2022/11/22 06:04:34;;;;;;;9.73;6.83;;;;;;;;;;732609;190;917605;-60
2022/11/22 06:06:59;;;;;;;14.83;7.70;;;;;;;;;;735931;190;907832;-59
2022/11/22 06:09:25;;;;;;;14.90;9.50;;;;;;;;;;732646;190;918862;-62
2022/11/22 06:11:51;;;;;;;12.43;7.40;;;;;;;;;;731008;190;924026;-63
2022/11/22 06:14:17;;;;;;;13.83;8.83;;;;;;;;;;730960;190;917314;-62
2022/11/22 06:16:43;;;;;;;9.87;6.27;;;;;;;;;;742348;187;911851;-60
2022/11/22 06:19:09;;;;;;;15.90;9.87;;;;;;;;;;734272;187;926757;-63
2022/11/22 06:21:35;;;;;;;10.93;7.00;;;;;;;;;;733246;191;948874;-60
2022/11/22 06:24:01;;;;;;;22.03;12.73;;;;;;;;;;736668;191;915716;-59
2022/11/22 06:26:26;;;;;;;35.10;20.53;;;;;;;;;;733461;190;918440;-61
2022/11/22 06:28:52;;;;;;;37.77;20.47;;;;;;;;;;735252;190;917718;-63
2022/11/22 06:31:19;;;;;;;22.77;12.53;;;;;;;;;;743731;190;881877;-63
2022/11/22 06:33:45;;;;;;;28.43;19.03;;;;;;;;;;736429;190;916074;-63
2022/11/22 06:36:12;;;;;;;59.67;34.63;;;;;;;;;;736209;190;912877;-59
2022/11/22 06:38:38;;;;;;;15.67;9.60;;;;;;;;;;734773;190;916472;-60
2022/11/22 06:41:04;;;;;;;32.90;20.80;;;;;;;;;;734060;189;851344;-64
2022/11/22 06:43:30;;;;;;;22.03;12.90;;;;;;;;;;733448;188;916375;-60
2022/11/22 06:45:57;;;;;;;34.15;21.33;;;;;;;;;;731159;190;912690;-60
2022/11/22 06:48:23;;;;;;;35.27;22.70;;;;;;;;;;737313;190;908594;-63
2022/11/22 06:50:49;;;;;;;38.90;23.30;;;;;;;;;;730906;190;914952;-61
2022/11/22 06:53:14;;;;;;;32.13;21.63;;;;;;;;;;728589;190;914931;-63
2022/11/22 06:55:40;;;;;;;31.93;20.53;;;;;;;;;;738953;190;918456;-63
2022/11/22 06:58:06;;;;;;;33.17;18.67;;;;;;;;;;730828;191;915696;-60
2022/11/22 07:00:32;;;;;;;47.07;28.07;;;;;;;;;;734675;190;909252;-60
2022/11/22 07:02:58;;;;;;;29.00;16.73;;;;;;;;;;735981;190;915885;-63
2022/11/22 07:05:24;;;;;;;20.23;13.43;;;;;;;;;;737596;189;815425;-63
2022/11/22 07:07:50;;;;;;;25.00;13.97;;;;;;;;;;734383;190;915894;-59
2022/11/22 07:10:16;;;;;;;23.13;16.17;;;;;;;;;;733127;190;802051;-59
2022/11/22 07:12:41;;;;;;;81.13;37.90;;;;;;;;;;731281;191;918849;-58
2022/11/22 07:15:08;;;;;;;35.77;23.60;;;;;;;;;;735483;190;815055;-61
2022/11/22 07:17:33;;;;;;;27.40;19.17;;;;;;;;;;737360;190;914815;-60
2022/11/22 07:19:59;;;;;;;25.30;16.90;;;;;;;;;;739390;190;915933;-65
2022/11/22 07:22:25;;;;;;;19.43;13.40;;;;;;;;;;735897;190;916061;-63
2022/11/22 07:24:51;;;;;;;184.10;63.73;;;;;;;;;;737781;190;906968;-63
2022/11/22 07:27:17;;;;;;;89.17;34.10;;;;;;;;;;741514;190;836476;-60
2022/11/22 07:29:43;;;;;;;31.75;20.23;;;;;;;;;;735443;190;916985;-60
2022/11/22 07:32:08;;;;;;;32.77;21.07;;;;;;;;;;736736;190;813528;-63
2022/11/22 07:34:34;;;;;;;28.40;17.40;;;;;;;;;;733837;188;1018152;-61
2022/11/22 07:37:00;;;;;;;25.23;16.07;;;;;;;;;;739702;190;913032;-61
2022/11/22 07:39:26;;;;;;;24.70;16.63;;;;;;;;;;735886;188;915427;-61
2022/11/22 07:41:52;;;;;;;27.50;16.80;;;;;;;;;;732722;191;915503;-62
2022/11/22 07:44:18;;;;;;;19.93;14.60;;;;;;;;;;737090;191;914373;-66
2022/11/22 07:46:44;;;;;;;22.75;14.10;;;;;;;;;;730220;191;921620;-62
2022/11/22 07:49:09;;;;;;;19.17;13.30;;;;;;;;;;730261;191;920643;-61
2022/11/22 07:51:35;;;;;;;19.83;13.33;;;;;;;;;;739984;190;914899;-61
2022/11/22 07:54:01;;;;;;;39.57;23.80;;;;;;;;;;734773;190;819876;-64
2022/11/22 07:56:27;;;;;;;51.53;26.57;;;;;;;;;;727637;191;921251;-64
2022/11/22 07:58:53;;;;;;;36.10;20.50;;;;;;;;;;723988;191;880247;-62
2022/11/22 08:01:19;;;;;;;32.47;19.30;;;;;;;;;;731011;192;815527;-64
2022/11/22 08:03:44;;;;;;;45.47;24.30;;;;;;;;;;729511;191;918299;-65
2022/11/22 08:06:10;;;;;;;31.00;19.30;;;;;;;;;;733956;189;918883;-61
2022/11/22 08:08:36;;;;;;;27.57;18.20;;;;;;;;;;740087;190;919486;-60
2022/11/22 08:11:02;;;;;;;32.77;21.60;;;;;;;;;;735143;190;918863;-64
2022/11/22 08:13:29;;;;;;;21.90;13.10;;;;;;;;;;733678;190;917302;-64
2022/11/22 08:15:55;;;;;;;20.60;13.70;;;;;;;;;;736954;190;915323;-65
2022/11/22 08:18:20;;;;;;;18.20;11.63;;;;;;;;;;735097;190;815739;-61
2022/11/22 08:20:46;;;;;;;21.57;15.23;;;;;;;;;;734986;190;916224;-60
2022/11/22 08:23:12;;;;;;;17.37;11.63;;;;;;;;;;736293;190;908829;-61
2022/11/22 08:25:38;;;;;;;28.70;17.00;;;;;;;;;;736089;190;888845;-63
2022/11/22 08:28:04;;;;;;;20.40;11.47;;;;;;;;;;733984;190;919446;-60
2022/11/22 08:30:30;;;;;;;12.30;9.90;;;;;;;;;;732452;189;919212;-63
2022/11/22 08:32:56;;;;;;;16.90;11.23;;;;;;;;;;736556;191;919555;-65
2022/11/22 08:35:22;;;;;;;9.65;7.28;;;;;;;;;;731263;191;919458;-63
2022/11/22 08:37:48;;;;;;;13.90;10.13;;;;;;;;;;728160;191;919153;-63
2022/11/22 08:40:14;;;;;;;18.50;10.83;;;;;;;;;;733248;191;919516;-60
2022/11/22 08:42:40;;;;;;;29.80;18.20;;;;;;;;;;731630;191;907813;-59
2022/11/22 08:45:06;;;;;;;9.60;6.17;;;;;;;;;;730474;191;818671;-63
2022/11/22 08:47:33;;;;;;;34.80;20.58;;;;;;;;;;732169;191;817813;-61
2022/11/22 08:49:59;;;;;;;18.00;10.53;;;;;;;;;;736908;189;914657;-59
2022/11/22 08:52:25;;;;;;;22.17;17.17;;;;;;;;;;736023;189;919538;-60
2022/11/22 08:54:51;;;;;;;19.33;11.10;;;;;;;;;;734323;190;919360;-64
2022/11/22 08:57:17;;;;;;;17.73;12.00;;;;;;;;;;738139;191;919664;-60
2022/11/22 08:59:42;;;;;;;18.57;12.70;;;;;;;;;;734967;190;913035;-60
2022/11/22 09:02:08;;;;;;;19.53;12.27;;;;;;;;;;733486;191;940703;-60
2022/11/22 09:04:34;;;;;;;19.90;11.57;;;;;;;;;;739222;190;752166;-60
2022/11/22 09:07:00;;;;;;;20.17;12.07;;;;;;;;;;737335;190;853081;-63
2022/11/22 09:09:26;;;;;;;19.03;14.50;;;;;;;;;;735548;190;922457;-60
2022/11/22 09:11:52;;;;;;;22.15;15.18;;;;;;;;;;736536;190;919618;-61
2022/11/22 09:14:18;;;;;;;23.37;14.10;;;;;;;;;;732265;191;919082;-63
2022/11/22 09:16:43;;;;;;;26.47;16.33;;;;;;;;;;728275;191;919095;-64
2022/11/22 09:19:10;;;;;;;78.67;42.30;;;;;;;;;;728295;191;918715;-64
2022/11/22 09:21:36;;;;;;;49.03;30.90;;;;;;;;;;737822;190;919552;-64
2022/11/22 09:24:02;;;;;;;27.77;16.40;;;;;;;;;;734209;190;918510;-60
2022/11/22 09:26:28;;;;;;;25.97;16.00;;;;;;;;;;725775;193;918441;-59
2022/11/22 09:28:53;;;;;;;25.40;15.30;;;;;;;;;;726695;194;918102;-63
2022/11/22 09:31:19;;;;;;;40.53;23.30;;;;;;;;;;725859;193;815129;-64
2022/11/22 09:33:45;;;;;;;41.30;25.30;;;;;;;;;;726044;193;915704;-63
2022/11/22 09:36:12;;;;;;;34.97;21.07;;;;;;;;;;727980;193;915963;-64
2022/11/22 09:38:38;;;;;;;45.57;25.30;;;;;;;;;;731071;190;920042;-64
2022/11/22 09:41:24;;;;;;;30.50;18.53;;;;;;;;;;734186;188;907684;-60
2022/11/22 09:43:53;;;;;;;25.97;16.23;;;;;;;;;;736630;190;773546;-63
2022/11/22 09:46:22;;;;;;;36.87;20.80;;;;;;;;;;735277;190;918920;-61
2022/11/22 09:48:51;;;;;;;32.23;21.30;;;;;;;;;;739805;190;919465;-64
2022/11/22 09:51:18;;;;;;;37.70;17.10;;;;;;;;;;735200;190;910576;-64
2022/11/22 09:53:48;;;;;;;24.47;15.77;;;;;;;;;;726298;191;919528;-64
2022/11/22 09:56:15;;;;;;;22.02;15.60;;;;;;;;;;729836;190;925801;-64
2022/11/22 09:58:43;;;;;;;37.60;22.23;;;;;;;;;;737098;191;917096;-60
2022/11/22 10:01:10;;;;;;;22.40;16.08;;;;;;;;;;730092;190;917462;-59
2022/11/22 10:03:40;;;;;;;23.30;14.43;;;;;;;;;;733594;190;940314;-60
2022/11/22 10:06:06;;;;;;;22.50;15.20;;;;;;;;;;732179;190;919316;-64
2022/11/22 10:08:34;;;;;;;20.03;13.90;;;;;;;;;;741702;190;919235;-60
2022/11/22 10:10:59;;;;;;;21.93;14.63;;;;;;;;;;736728;190;918922;-64
2022/11/22 10:13:26;;;;;;;25.07;17.87;;;;;;;;;;734678;191;918342;-60
2022/11/22 10:15:54;;;;;;;22.73;17.17;;;;;;;;;;734300;191;922901;-61
2022/11/22 10:18:20;;;;;;;17.97;11.97;;;;;;;;;;738393;189;918059;-61
2022/11/22 10:20:46;;;;;;;25.20;15.40;;;;;;;;;;732391;191;919256;-60
2022/11/22 10:23:15;;;;;;;16.50;10.87;;;;;;;;;;734905;190;918253;-61
2022/11/22 10:25:40;;;;;;;28.83;14.80;;;;;;;;;;738001;190;818600;-64
2022/11/22 10:28:10;;;;;;;18.20;11.93;;;;;;;;;;724375;193;871128;-63
2022/11/22 10:30:36;;;;;;;46.47;28.37;;;;;;;;;;727297;190;918045;-59
2022/11/22 10:33:05;;;;;;;19.30;13.17;;;;;;;;;;736775;190;918518;-61
2022/11/22 10:35:32;;;;;;;32.43;21.37;;;;;;;;;;736076;190;916391;-65
2022/11/22 10:38:02;;;;;;;43.57;31.93;;;;;;;;;;737325;190;918557;-61
2022/11/22 10:40:36;;;;;;;22.67;16.17;;;;;;;;;;733324;190;920365;-60
2022/11/22 10:43:05;;;;;;;36.90;22.87;;;;;;;;;;731443;191;919524;-61
2022/11/22 10:45:33;;;;;;;29.10;17.27;;;;;;;;;;736146;191;924496;-60
2022/11/22 10:48:06;;;;;;;23.60;16.50;;;;;;;;;;734353;190;919500;-64
2022/11/22 10:50:38;;;;;;;24.63;17.10;;;;;;;;;;732852;190;918615;-60
2022/11/22 10:53:05;;;;;;;24.97;17.57;;;;;;;;;;728450;191;919225;-63
2022/11/22 10:55:35;;;;;;;23.87;16.93;;;;;;;;;;732158;190;919526;-60
2022/11/22 10:58:18;;;;;;;24.67;18.70;;;;;;;;;;739699;190;921810;-64
2022/11/22 11:00:44;;;;;;;23.70;16.60;;;;;;;;;;736174;190;905452;-64
2022/11/22 11:03:25;;;;;;;22.37;13.25;;;;;;;;;;735816;190;920529;-61
2022/11/22 11:05:55;;;;;;;19.97;12.53;;;;;;;;;;732773;190;919278;-65
2022/11/22 11:08:25;;;;;;;36.60;21.20;;;;;;;;;;728769;192;919057;-64
2022/11/22 11:10:51;;;;;;;46.90;26.60;;;;;;;;;;735046;190;815785;-61
2022/11/22 11:13:17;;;;;;;42.47;25.57;;;;;;;;;;734032;188;918986;-61
2022/11/22 11:15:43;;;;;;;50.37;33.93;;;;;;;;;;734663;190;918739;-61
2022/11/22 11:18:11;;;;;;;36.83;23.13;;;;;;;;;;732607;190;1041067;-61
2022/11/22 11:20:37;;;;;;;160.97;71.97;;;;;;;;;;739107;190;916663;-66
2022/11/22 11:23:03;;;;;;;37.83;23.70;;;;;;;;;;738556;190;918268;-61
2022/11/22 11:25:29;;;;;;;26.57;16.13;;;;;;;;;;735683;190;918313;-64
2022/11/22 11:27:55;;;;;;;55.88;32.38;;;;;;;;;;726713;193;918755;-65
2022/11/22 11:30:21;;;;;;;23.13;15.50;;;;;;;;;;722714;190;919358;-64
2022/11/22 11:32:50;;;;;;;20.20;12.37;;;;;;;;;;735672;190;919418;-64
2022/11/22 11:35:15;;;;;;;36.03;18.70;;;;;;;;;;736154;190;919209;-64
2022/11/22 11:37:41;;;;;;;41.15;23.52;;;;;;;;;;732739;190;922175;-65
2022/11/22 11:40:23;;;;;;;25.07;18.33;;;;;;;;;;727652;191;920422;-65
2022/11/22 11:42:49;;;;;;;15.63;11.00;;;;;;;;;;722130;191;923871;-64
2022/11/22 11:45:17;;;;;;;19.35;11.38;;;;;;;;;;725161;191;918318;-64
2022/11/22 11:47:43;;;;;;;28.00;17.83;;;;;;;;;;738526;190;919286;-65
2022/11/22 11:50:15;;;;;;;52.97;29.47;;;;;;;;;;734286;190;919390;-65
2022/11/22 11:52:41;;;;;;;51.20;31.53;;;;;;;;;;734171;190;919486;-64
2022/11/22 11:55:07;;;;;;;43.07;27.63;;;;;;;;;;735598;190;896912;-64
2022/11/22 11:57:33;;;;;;;46.80;23.37;;;;;;;;;;739791;190;918231;-64
2022/11/22 12:00:00;;;;;;;41.00;22.47;;;;;;;;;;735825;190;917661;-65
2022/11/22 12:02:29;;;;;;;32.27;20.00;;;;;;;;;;731557;190;919078;-64
2022/11/22 12:04:55;;;;;;;34.93;21.37;;;;;;;;;;732761;192;918234;-65
2022/11/22 12:07:22;;;;;;;29.13;20.37;;;;;;;;;;726208;187;919347;-66
2022/11/22 12:09:48;;;;;;;39.47;25.87;;;;;;;;;;735029;190;859425;-65
2022/11/22 12:12:19;;;;;;;38.73;27.83;;;;;;;;;;733592;190;941724;-64
2022/11/22 12:14:45;;;;;;;34.97;22.83;;;;;;;;;;740126;189;889947;-65
2022/11/22 12:17:12;;;;;;;31.43;19.20;;;;;;;;;;735668;190;816467;-66
2022/11/22 12:19:44;;;;;;;21.95;14.82;;;;;;;;;;729505;191;894160;-61
2022/11/22 12:22:10;;;;;;;22.83;16.13;;;;;;;;;;728059;190;898307;-64
2022/11/22 12:24:36;;;;;;;24.00;17.03;;;;;;;;;;735688;189;816739;-62
2022/11/22 12:27:03;;;;;;;26.73;18.87;;;;;;;;;;734780;189;918783;-61
2022/11/22 12:29:29;;;;;;;34.07;20.70;;;;;;;;;;737306;189;920280;-61
2022/11/22 12:31:59;;;;;;;28.60;19.53;;;;;;;;;;738902;190;915594;-65
2022/11/22 12:34:44;;;;;;;25.23;17.37;;;;;;;;;;741922;187;915364;-64
2022/11/22 12:37:10;;;;;;;26.90;18.23;;;;;;;;;;740779;187;914554;-60
2022/11/22 12:39:36;;;;;;;31.00;17.70;;;;;;;;;;736418;187;915029;-63
2022/11/22 12:42:02;;;;;;;26.20;16.70;;;;;;;;;;736829;190;922364;-61
2022/11/22 12:44:28;;;;;;;28.65;18.35;;;;;;;;;;740079;190;820347;-60
2022/11/22 12:46:54;;;;;;;31.13;19.07;;;;;;;;;;734640;190;918106;-61
2022/11/22 12:49:24;;;;;;;29.00;18.27;;;;;;;;;;732973;190;923167;-64
2022/11/22 12:51:53;;;;;;;25.37;17.50;;;;;;;;;;730402;191;919225;-65
2022/11/22 12:54:21;;;;;;;23.20;16.90;;;;;;;;;;734545;190;917099;-60
2022/11/22 12:56:47;;;;;;;21.00;13.50;;;;;;;;;;732878;190;906512;-61
2022/11/22 12:59:14;;;;;;;17.67;12.60;;;;;;;;;;730678;190;917598;-61
2022/11/22 13:01:51;;;;;;;23.63;14.17;;;;;;;;;;734536;190;919908;-60
2022/11/22 13:04:19;;;;;;;25.20;14.30;;;;;;;;;;733904;190;917350;-61
2022/11/22 13:06:59;;;;;;;42.50;23.40;;;;;;;;;;735757;190;916033;-64
2022/11/22 13:09:27;;;;;;;45.00;27.50;;;;;;;;;;729933;187;919182;-64
2022/11/22 13:11:55;;;;;;;57.13;28.47;;;;;;;;;;732894;188;923119;-61
2022/11/22 13:14:21;;;;;;;96.27;49.53;;;;;;;;;;735493;189;936149;-64
2022/11/22 13:16:47;;;;;;;84.80;42.53;;;;;;;;;;735619;190;919621;-64
2022/11/22 13:19:13;;;;;;;43.87;22.30;;;;;;;;;;730556;190;918543;-64
2022/11/22 13:21:43;;;;;;;74.97;45.47;;;;;;;;;;731588;190;919137;-64
2022/11/22 13:24:25;;;;;;;29.83;22.37;;;;;;;;;;735811;190;919006;-64
2022/11/22 13:26:51;;;;;;;44.17;30.70;;;;;;;;;;733469;190;914840;-65
2022/11/22 13:29:18;;;;;;;30.13;17.00;;;;;;;;;;731080;190;921057;-61
2022/11/22 13:31:50;;;;;;;32.77;18.63;;;;;;;;;;730775;190;920047;-60
2022/11/22 13:34:15;;;;;;;73.40;29.12;;;;;;;;;;733636;190;918518;-62
2022/11/22 13:36:42;;;;;;;32.10;20.00;;;;;;;;;;738598;189;816205;-65
2022/11/22 13:39:09;;;;;;;42.10;26.40;;;;;;;;;;734432;190;899819;-65
2022/11/22 13:41:35;;;;;;;40.03;21.90;;;;;;;;;;730653;189;918166;-65
2022/11/22 13:44:07;;;;;;;33.77;23.23;;;;;;;;;;736074;190;915474;-61
2022/11/22 13:46:39;;;;;;;55.53;34.10;;;;;;;;;;735429;189;917101;-61
2022/11/22 13:49:07;;;;;;;88.00;52.50;;;;;;;;;;731376;189;919441;-61
2022/11/22 13:51:39;;;;;;;59.88;39.40;;;;;;;;;;731086;190;919238;-61
2022/11/22 13:54:24;;;;;;;42.83;27.27;;;;;;;;;;733198;190;920854;-61
2022/11/22 13:56:58;;;;;;;55.03;37.33;;;;;;;;;;783125;170;912634;-59
2022/11/22 13:59:25;;;;;;;56.90;37.93;;;;;;;;;;766271;181;919382;-59
2022/11/22 14:01:54;;;;;;;43.87;31.07;;;;;;;;;;766833;181;919311;-62
2022/11/22 14:04:31;;;;;;;51.47;36.00;;;;;;;;;;768136;180;922577;-62
2022/11/22 14:06:57;;;;;;;40.63;24.73;;;;;;;;;;770602;179;919356;-64
2022/11/22 14:09:27;;;;;;;30.23;21.20;;;;;;;;;;761024;179;918929;-64
2022/11/22 14:12:00;;;;;;;32.50;23.63;;;;;;;;;;772588;180;919295;-61
2022/11/22 14:14:26;;;;;;;29.00;19.80;;;;;;;;;;764706;180;918857;-65
2022/11/22 14:16:58;;;;;;;67.37;37.37;;;;;;;;;;768682;180;820120;-61
2022/11/22 14:19:27;;;;;;;102.87;56.43;;;;;;;;;;770532;180;922645;-61
2022/11/22 14:21:57;;;;;;;100.77;57.20;;;;;;;;;;774996;180;918854;-61